Hovedside
METAR-TAF:

METAR-TAF

Lufthavner :

Tunis, Tunisia

breddegrad: 36-50N, lengdegrad: 010-14E, høyde over havet: 3 m

Gjeldene værobservasjon

Denne rapporten ble laget for 23 minutter siden, klokken 15:30 UTC
Vind 6 kt fra Sør-sørøst, skiftende mellom Øst-sørøst og Sør
Temperatur 17°C
Luftfuktighet 42%
Trykk 1015 hPa
Sikt 10 km eller mer
Spredte skyer i en høyde av 2600 ft

METAR: DTTA 201530Z 15006KT 120V180 9999 SCT026 17/04 Q1015

Tid: 16:53 (15:53 UTC)

Varsel

Denne rapporten ble laget for 4 timer og 53 minutter siden, klokken 11:00 UTC
Varsel gyldig fra 20. klokken 12 UTC til 21. klokken 12 UTC
Vind 6 kt fra Sør-sørøst
Sikt 10 km eller mer
Få skyer i en høyde av 2600 ft
Blir
fra 20. klokken 19 UTC til 20. klokken 21 UTC
Vind 15 kt fra Sør med vindkast opp mot 25 kt
Blir
fra 20. klokken 20 UTC til 20. klokken 22 UTC
Vind 8 kt fra Sør-sørvest

TAF: DTTA 201100Z 2012/2112 16006KT 9999 FEW026 BECMG 2019/2021 18015G25KT BECMG 2020/2022 20008KT

Værobservasjoner og værvarsel for over 4000 flyplasser (METAR- og TAF-rapporter).

Tilgjengelige stasjoner er representert av de røde og gule prikkene på kartet.

Hold musepekeren over prikken for å se navnet på stasjonen.

Klikk så for å se værobservasjoner og -varsler.

For å forandre kartet kan du klikke på den grønne knappen med svart kryss for å zoome inn, på den grønne knappen med strek for å zoome ut, eller på de grønne pilene for å se tilstøtende kart.


METAR-TAF: